createdAt,value
2022-11-30T00:00:58.509Z,-1.26
2022-11-30T00:03:26.132Z,-1.15
2022-11-30T00:05:53.695Z,-1.16
2022-11-30T00:08:21.282Z,-1.01
2022-11-30T00:10:48.926Z,-0.96
2022-11-30T00:13:16.282Z,-0.88
2022-11-30T00:15:43.680Z,-0.96
2022-11-30T00:18:11.189Z,-1.05
2022-11-30T00:20:38.685Z,-1.04
2022-11-30T00:23:06.237Z,-1.07
2022-11-30T00:25:33.561Z,-1.10
2022-11-30T00:28:01.799Z,-1.08
2022-11-30T00:30:29.471Z,-1.07
2022-11-30T00:32:57.858Z,-1.23
2022-11-30T00:35:25.369Z,-1.21
2022-11-30T00:37:52.777Z,-1.22
2022-11-30T00:40:20.360Z,-1.24
2022-11-30T00:42:47.803Z,-1.07
2022-11-30T00:45:15.384Z,-1.13
2022-11-30T00:47:43.509Z,-1.20
2022-11-30T00:50:11.862Z,-1.13
2022-11-30T00:52:42.376Z,-1.11
2022-11-30T00:55:10.341Z,-1.00
2022-11-30T00:57:37.655Z,-1.18
2022-11-30T01:00:05.235Z,-1.32
2022-11-30T01:02:32.734Z,-1.23
2022-11-30T01:05:00.370Z,-1.36
2022-11-30T01:07:27.912Z,-1.37
2022-11-30T01:09:55.870Z,-1.03
2022-11-30T01:12:24.347Z,-1.35
2022-11-30T01:14:51.620Z,-1.16
2022-11-30T01:17:19.363Z,-1.25
2022-11-30T01:19:46.767Z,-1.11
2022-11-30T01:22:14.069Z,-0.97
2022-11-30T01:24:41.351Z,-1.01
2022-11-30T01:27:08.842Z,-0.90
2022-11-30T01:29:36.190Z,-1.16
2022-11-30T01:32:03.830Z,-1.23
2022-11-30T01:34:31.162Z,-1.14
2022-11-30T01:36:58.524Z,-0.96
2022-11-30T01:39:25.980Z,-1.05
2022-11-30T01:41:53.904Z,-1.11
2022-11-30T01:44:27.147Z,-0.86
2022-11-30T01:47:04.171Z,-1.00
2022-11-30T01:49:31.516Z,-1.07
2022-11-30T01:52:00.875Z,-1.08
2022-11-30T01:54:39.049Z,-1.07
2022-11-30T01:57:12.778Z,-1.08
2022-11-30T01:59:40.107Z,-1.12
2022-11-30T02:02:07.454Z,-1.43
2022-11-30T02:04:35.558Z,-1.21
2022-11-30T02:07:03.436Z,-1.36
2022-11-30T02:09:31.623Z,-1.35
2022-11-30T02:11:59.181Z,-1.29
2022-11-30T02:14:33.189Z,-1.43
2022-11-30T02:17:30.316Z,-1.26
2022-11-30T02:20:30.292Z,-1.03
2022-11-30T02:23:04.077Z,-1.03
2022-11-30T02:25:31.520Z,-1.23
2022-11-30T02:27:58.931Z,-1.21
2022-11-30T02:30:26.815Z,-1.11
2022-11-30T02:32:55.449Z,-1.08
2022-11-30T02:35:30.669Z,-1.19
2022-11-30T02:37:59.445Z,-0.98
2022-11-30T02:40:26.871Z,-0.77
2022-11-30T02:42:54.511Z,-1.10
2022-11-30T02:45:24.277Z,-1.01
2022-11-30T02:48:11.887Z,-1.01
2022-11-30T02:50:44.779Z,-0.80
2022-11-30T02:53:12.212Z,-1.00
2022-11-30T02:55:39.588Z,-0.92
2022-11-30T02:58:06.985Z,-1.03
2022-11-30T03:00:34.478Z,-0.98
2022-11-30T03:03:02.345Z,-1.09
2022-11-30T03:05:29.833Z,-1.06
2022-11-30T03:07:57.684Z,-0.91
2022-11-30T03:10:25.574Z,-1.06
2022-11-30T03:12:52.992Z,-1.09
2022-11-30T03:15:20.352Z,-1.05
2022-11-30T03:17:47.933Z,-1.14
2022-11-30T03:20:15.316Z,-1.05
2022-11-30T03:22:42.708Z,-0.91
2022-11-30T03:25:10.366Z,-0.98
2022-11-30T03:27:37.715Z,-0.91
2022-11-30T03:30:05.899Z,-0.98
2022-11-30T03:32:34.474Z,-0.96
2022-11-30T03:35:01.846Z,-0.83
2022-11-30T03:37:29.361Z,-1.17
2022-11-30T03:39:58.519Z,-0.91
2022-11-30T03:42:27.338Z,-0.92
2022-11-30T03:44:54.747Z,-1.01
2022-11-30T03:47:22.228Z,-0.76
2022-11-30T03:49:49.911Z,-0.85
2022-11-30T03:52:17.339Z,-0.93
2022-11-30T03:54:45.064Z,-1.03
2022-11-30T03:57:12.942Z,-0.61
2022-11-30T03:59:40.474Z,-0.83
2022-11-30T04:02:08.100Z,-0.94
2022-11-30T04:04:35.840Z,-1.18
2022-11-30T04:07:03.214Z,-1.08
2022-11-30T04:09:31.281Z,-0.92
2022-11-30T04:11:59.239Z,-1.10
2022-11-30T04:14:26.696Z,-0.91
2022-11-30T04:16:54.036Z,-0.96
2022-11-30T04:19:21.346Z,-0.88
2022-11-30T04:21:48.808Z,-0.94
2022-11-30T04:24:16.135Z,-0.98
2022-11-30T04:26:43.885Z,-0.95
2022-11-30T04:29:11.954Z,-0.88
2022-11-30T04:31:39.535Z,-0.81
2022-11-30T04:34:07.166Z,-0.96
2022-11-30T04:36:34.874Z,-1.33
2022-11-30T04:39:02.420Z,-1.21
2022-11-30T04:41:30.553Z,-1.06
2022-11-30T04:43:57.822Z,-1.02
2022-11-30T04:46:25.381Z,-0.98
2022-11-30T04:48:52.862Z,-1.16
2022-11-30T04:51:20.316Z,-1.14
2022-11-30T04:53:47.642Z,-1.02
2022-11-30T04:56:15.025Z,-1.02
2022-11-30T04:58:42.363Z,-1.03
2022-11-30T05:01:09.938Z,-0.90
2022-11-30T05:03:37.577Z,-0.83
2022-11-30T05:06:04.994Z,-0.96
2022-11-30T05:08:32.684Z,-0.97
2022-11-30T05:11:02.028Z,-0.99
2022-11-30T05:13:29.973Z,-0.84
2022-11-30T05:15:57.444Z,-1.01
2022-11-30T05:18:24.888Z,-0.77
2022-11-30T05:20:52.924Z,-0.76
2022-11-30T05:23:20.628Z,-0.87
2022-11-30T05:25:48.201Z,-0.95
2022-11-30T05:28:15.703Z,-1.15
2022-11-30T05:30:43.211Z,-0.93
2022-11-30T05:33:10.906Z,-0.92
2022-11-30T05:35:38.204Z,-0.84
2022-11-30T05:38:05.625Z,-0.64
2022-11-30T05:40:33.782Z,-0.84
2022-11-30T05:43:01.920Z,-0.91
2022-11-30T05:45:29.468Z,-1.06
2022-11-30T05:47:56.912Z,-1.06
2022-11-30T05:50:24.281Z,-0.81
2022-11-30T05:52:58.321Z,-0.86
2022-11-30T05:55:25.738Z,-0.92
2022-11-30T05:57:53.335Z,-1.09
2022-11-30T06:00:21.097Z,-0.78
2022-11-30T06:02:48.760Z,-0.60
2022-11-30T06:05:16.271Z,-0.64
2022-11-30T06:07:43.816Z,-0.62
2022-11-30T06:10:11.605Z,-0.65
2022-11-30T06:12:39.037Z,-0.61
2022-11-30T06:15:06.787Z,-0.79
2022-11-30T06:17:34.531Z,-0.86
2022-11-30T06:20:01.955Z,-0.60
2022-11-30T06:22:29.750Z,-0.65
2022-11-30T06:24:57.232Z,-0.52
2022-11-30T06:27:24.662Z,-0.41
2022-11-30T06:29:53.435Z,-0.60
2022-11-30T06:32:20.896Z,-0.42
2022-11-30T06:34:48.443Z,-0.30
2022-11-30T06:37:16.024Z,-0.17
2022-11-30T06:40:05.420Z,-0.23
2022-11-30T06:42:31.418Z,-0.40
2022-11-30T06:44:58.985Z,0.04
2022-11-30T06:47:28.218Z,0.24
2022-11-30T06:49:55.588Z,0.22
2022-11-30T06:52:23.059Z,-0.03
2022-11-30T16:31:36.676Z,2.57
2022-11-30T16:34:04.264Z,2.39
2022-11-30T16:36:33.616Z,2.56
2022-11-30T16:39:01.013Z,2.33
2022-11-30T16:41:28.930Z,2.40
2022-11-30T16:43:56.456Z,2.22
2022-11-30T16:46:24.565Z,2.33
2022-11-30T16:48:51.959Z,2.40
2022-11-30T16:51:27.550Z,2.44
2022-11-30T16:53:54.982Z,2.55
2022-11-30T16:56:22.474Z,2.64
2022-11-30T16:58:50.039Z,2.29
2022-11-30T17:01:17.802Z,2.44
2022-11-30T17:03:45.926Z,2.28
2022-11-30T17:06:14.419Z,2.35
2022-11-30T17:08:42.406Z,2.43
2022-11-30T17:11:14.188Z,2.27
2022-11-30T17:13:42.534Z,2.53
2022-11-30T17:16:10.331Z,2.39
2022-11-30T17:18:37.655Z,2.37
2022-11-30T17:21:05.142Z,2.38
2022-11-30T17:23:32.581Z,2.32
2022-11-30T17:26:00.033Z,2.27
2022-11-30T17:28:27.365Z,2.34
2022-11-30T17:30:54.708Z,2.32
2022-11-30T17:33:22.275Z,2.44
2022-11-30T17:35:49.754Z,2.45
2022-11-30T17:38:17.741Z,2.35
2022-11-30T17:40:45.509Z,2.18
2022-11-30T17:43:12.790Z,2.13
2022-11-30T17:45:40.494Z,2.08
2022-11-30T17:48:07.970Z,2.26
2022-11-30T17:50:37.809Z,2.32
2022-11-30T17:53:06.036Z,2.26
2022-11-30T17:55:33.725Z,2.14
2022-11-30T17:58:01.355Z,2.34
2022-11-30T18:00:29.046Z,2.24
2022-11-30T18:02:56.597Z,2.20
2022-11-30T18:05:23.971Z,2.20
2022-11-30T18:07:51.485Z,1.94
2022-11-30T18:10:19.038Z,2.09
2022-11-30T18:12:46.731Z,2.05
2022-11-30T18:15:14.834Z,2.04
2022-11-30T18:17:42.231Z,1.87
2022-11-30T18:20:11.010Z,1.96
2022-11-30T18:22:38.617Z,2.22
2022-11-30T18:25:06.205Z,2.09
2022-11-30T18:27:33.735Z,2.09
2022-11-30T18:30:02.795Z,2.25
2022-11-30T18:32:34.076Z,2.29
2022-11-30T18:35:02.297Z,2.26
2022-11-30T18:37:29.943Z,2.33
2022-11-30T18:39:57.477Z,2.20
2022-11-30T18:42:24.833Z,2.32
2022-11-30T18:44:53.070Z,2.37
2022-11-30T18:47:21.047Z,2.15
2022-11-30T18:49:48.416Z,2.17
2022-11-30T18:52:15.821Z,2.41
2022-11-30T18:54:43.119Z,2.32
2022-11-30T18:57:10.498Z,2.22
2022-11-30T18:59:37.899Z,2.34
2022-11-30T19:02:06.041Z,2.25
2022-11-30T23:22:10.987Z,1.52
2022-11-30T23:24:38.600Z,1.35
2022-11-30T23:27:05.899Z,1.52
2022-11-30T23:29:34.715Z,1.46
2022-11-30T23:32:02.466Z,1.46
2022-11-30T23:34:29.900Z,1.55
2022-11-30T23:36:57.473Z,1.40
2022-11-30T23:39:24.925Z,1.37
2022-11-30T23:41:52.261Z,1.41
2022-11-30T23:44:19.800Z,1.46
2022-11-30T23:46:47.273Z,1.49
2022-11-30T23:49:15.413Z,1.46
2022-11-30T23:51:43.012Z,1.34
2022-11-30T23:54:10.460Z,1.38
2022-11-30T23:56:37.750Z,1.24
2022-11-30T23:59:06.050Z,1.23
